Time;durP1;ratioP1;P1;durP2;ratioP2;P2;SDS_P1;SDS_P2;PMS_P1;PMS_P2;Temp;Humidity;BMP_temperature;BMP_pressure;BME280_temperature;BME280_humidity;BME280_pressure;Samples;Min_cycle;Max_cycle;Signal;HPM_P1;HPM_P2
2023/02/03 00:00:58;;;;;;;;;1.25;0.50;;;;;10.00;100.00;103137.72;5041732;28;62072;-83
2023/02/03 00:03:23;;;;;;;;;1.00;1.00;;;;;9.98;100.00;103142.03;4974960;28;45466;-82
2023/02/03 00:05:48;;;;;;;;;1.00;1.00;;;;;9.99;100.00;103137.72;4974478;28;56000;-83
2023/02/03 00:08:14;;;;;;;;;0.75;0.75;;;;;10.03;100.00;103139.50;4973929;28;57422;-83
2023/02/03 00:10:40;;;;;;;;;0.00;0.00;;;;;10.03;100.00;103142.13;5042115;28;45462;-83
2023/02/03 00:13:06;;;;;;;;;0.75;0.75;;;;;10.05;100.00;103146.47;5041794;28;55640;-83
2023/02/03 00:15:31;;;;;;;;;0.50;0.50;;;;;10.07;100.00;103149.09;5042028;28;47515;-83
2023/02/03 00:17:57;;;;;;;;;0.00;0.00;;;;;10.08;100.00;103145.63;5041147;28;52228;-84
2023/02/03 00:20:22;;;;;;;;;2.50;1.00;;;;;10.07;100.00;103144.75;4974695;28;45447;-82
2023/02/03 00:22:48;;;;;;;;;0.00;0.00;;;;;10.04;100.00;103138.63;4974190;28;47940;-83
2023/02/03 00:25:13;;;;;;;;;0.75;0.00;;;;;10.00;100.00;103134.25;4974092;28;53873;-83
2023/02/03 00:27:38;;;;;;;;;0.25;0.25;;;;;9.96;100.00;103125.53;4974433;28;45364;-83
2023/02/03 00:30:04;;;;;;;;;2.00;1.25;;;;;9.93;100.00;103130.69;4974477;28;45564;-83
2023/02/03 00:32:30;;;;;;;;;2.00;0.50;;;;;9.88;100.00;103138.47;5041493;28;45480;-83
2023/02/03 00:34:55;;;;;;;;;1.00;1.00;;;;;9.84;100.00;103133.19;5041178;28;52177;-83
2023/02/03 00:37:22;;;;;;;;;1.00;0.00;;;;;9.80;100.00;103127.06;5040940;28;54398;-83
2023/02/03 00:39:47;;;;;;;;;2.75;1.00;;;;;9.81;100.00;103125.38;4974581;28;45461;-83
2023/02/03 00:42:13;;;;;;;;;3.00;1.00;;;;;9.80;100.00;103121.88;5041202;28;45307;-83
2023/02/03 00:44:38;;;;;;;;;2.00;0.00;;;;;9.79;100.00;103121.88;5040623;28;65459;-82
2023/02/03 00:47:03;;;;;;;;;0.25;0.25;;;;;9.79;100.00;103112.34;4974211;28;47776;-85
2023/02/03 00:49:29;;;;;;;;;0.00;0.00;;;;;9.77;100.00;103114.06;5041370;28;45364;-84
2023/02/03 00:51:54;;;;;;;;;1.00;1.00;;;;;9.74;100.00;103108.81;4973831;28;45236;-84
2023/02/03 00:54:19;;;;;;;;;2.75;2.00;;;;;9.71;100.00;103106.16;5041040;28;45591;-84
2023/02/03 00:56:45;;;;;;;;;0.75;0.75;;;;;9.72;100.00;103104.44;5041322;28;46538;-84
2023/02/03 00:59:10;;;;;;;;;2.75;1.00;;;;;9.71;100.00;103106.16;4974425;28;45488;-84
2023/02/03 01:01:36;;;;;;;;;0.50;0.00;;;;;9.66;100.00;103098.31;4974161;28;45349;-84
2023/02/03 01:04:01;;;;;;;;;0.50;0.50;;;;;9.68;100.00;103101.78;5057691;28;47239;-84
2023/02/03 01:06:27;;;;;;;;;2.00;0.25;;;;;9.66;100.00;103102.66;5040645;28;45487;-84
2023/02/03 01:08:53;;;;;;;;;0.75;0.00;;;;;9.63;100.00;103092.19;5057662;28;49147;-84
2023/02/03 01:11:21;;;;;;;;;2.00;1.00;;;;;9.60;100.00;103084.34;4972690;28;45494;-84
2023/02/03 01:13:46;;;;;;;;;0.50;0.00;;;;;9.60;100.00;103085.25;5040996;28;45480;-84
2023/02/03 01:16:13;;;;;;;;;0.00;0.00;;;;;9.60;100.00;103079.13;5040686;28;45577;-84
2023/02/03 01:18:40;;;;;;;;;0.00;0.00;;;;;9.54;100.00;103071.28;5040480;28;45381;-84
2023/02/03 01:21:11;;;;;;;;;0.75;0.75;;;;;9.50;100.00;103058.22;5040941;28;45499;-84
2023/02/03 01:23:37;;;;;;;;;0.50;0.50;;;;;9.54;100.00;103072.13;4973702;28;46345;-83
2023/02/03 01:26:13;;;;;;;;;0.00;0.00;;;;;9.57;100.00;103066.13;4973777;28;45382;-84
2023/02/03 01:28:39;;;;;;;;;1.75;0.00;;;;;9.59;100.00;103072.22;4973737;28;45349;-84
2023/02/03 01:31:12;;;;;;;;;0.50;0.50;;;;;9.61;100.00;103075.69;5040575;28;45552;-84
2023/02/03 01:33:39;;;;;;;;;0.00;0.00;;;;;9.59;100.00;103077.41;5040567;28;46237;-83
2023/02/03 01:36:08;;;;;;;;;0.00;0.00;;;;;9.54;100.00;103072.13;5019801;28;45566;-83
2023/02/03 01:38:35;;;;;;;;;0.00;0.00;;;;;9.55;100.00;103058.28;4954323;28;45328;-83
2023/02/03 01:41:00;;;;;;;;;0.00;0.00;;;;;9.55;100.00;103054.84;4954289;28;45448;-84
2023/02/03 01:43:31;;;;;;;;;1.00;0.00;;;;;9.56;100.00;103053.97;5037003;28;48974;-83
2023/02/03 01:45:58;;;;;;;;;0.00;0.00;;;;;9.54;100.00;103042.66;5020544;28;45572;-83
2023/02/03 01:48:23;;;;;;;;;1.00;1.00;;;;;9.54;100.00;103032.28;5037514;28;45317;-83
2023/02/03 01:50:49;;;;;;;;;0.00;0.00;;;;;9.52;100.00;103032.25;5036411;28;51027;-83
2023/02/03 01:53:14;;;;;;;;;1.25;0.00;;;;;9.44;100.00;103018.28;5037266;28;46369;-84
2023/02/03 01:55:43;;;;;;;;;1.00;0.25;;;;;9.38;100.00;103021.69;5036685;28;55310;-83
2023/02/03 01:58:13;;;;;;;;;0.00;0.00;;;;;9.40;100.00;103013.91;5037221;28;45349;-84
2023/02/03 02:00:38;;;;;;;;;1.00;0.00;;;;;9.38;100.00;103019.09;5037085;28;45456;-83
2023/02/03 02:03:04;;;;;;;;;0.75;0.25;;;;;9.37;100.00;103001.75;4953881;28;45416;-83
2023/02/03 02:05:41;;;;;;;;;3.00;0.00;;;;;9.34;100.00;103004.28;5036463;28;45763;-83
2023/02/03 02:08:07;;;;;;;;;0.00;0.00;;;;;9.33;100.00;103009.50;5020566;28;45417;-83
2023/02/03 02:10:33;;;;;;;;;0.00;0.00;;;;;9.33;100.00;103012.09;5036575;28;55685;-83
2023/02/03 02:13:01;;;;;;;;;1.25;0.50;;;;;9.33;100.00;103023.34;5036740;28;45364;-83
2023/02/03 02:15:46;;;;;;;;;0.00;0.00;;;;;9.36;100.00;103027.72;5037547;28;45733;-83
2023/02/03 02:18:35;;;;;;;;;0.00;0.00;;;;;9.37;100.00;103019.06;5012439;28;45523;-84
2023/02/03 02:21:09;;;;;;;;;0.00;0.00;;;;;9.37;100.00;103021.66;4993137;28;45743;-84
2023/02/03 02:23:45;;;;;;;;;0.00;0.00;;;;;9.34;100.00;103011.22;4996785;28;45375;-83
2023/02/03 02:26:47;;;;;;;;;0.25;0.00;;;;;9.27;100.00;103012.88;4980282;28;45750;-84
2023/02/03 02:29:58;;;;;;;;;1.75;0.00;;;;;9.13;100.00;103015.28;4996560;28;45434;-84
2023/02/03 02:32:45;;;;;;;;;0.00;0.00;;;;;9.07;100.00;103016.06;4996433;28;45520;-83
2023/02/03 02:35:27;;;;;;;;;0.00;0.00;;;;;9.00;100.00;103016.84;4996660;28;45599;-84
2023/02/03 02:38:03;;;;;;;;;0.25;0.25;;;;;8.99;100.00;103016.81;4980117;28;45898;-84
2023/02/03 02:40:41;;;;;;;;;0.00;0.00;;;;;8.95;100.00;103002.91;4980137;28;45320;-83
2023/02/03 02:43:11;;;;;;;;;0.00;0.00;;;;;8.90;100.00;102999.41;4980404;28;45481;-84
2023/02/03 02:45:56;;;;;;;;;0.50;0.00;;;;;8.88;100.00;103017.56;4980160;28;46287;-84
2023/02/03 02:48:32;;;;;;;;;0.00;0.00;;;;;8.83;100.00;103015.75;5012635;28;45421;-84
2023/02/03 02:50:59;;;;;;;;;0.00;0.00;;;;;8.88;100.00;103011.50;4980195;28;45544;-84
2023/02/03 02:53:28;;;;;;;;;0.00;0.00;;;;;8.93;100.00;103008.94;4979926;28;47955;-84
2023/02/03 02:55:55;;;;;;;;;0.00;0.00;;;;;8.98;100.00;103010.75;4979674;28;45699;-84
2023/02/03 02:58:22;;;;;;;;;0.00;0.00;;;;;9.05;100.00;103020.38;5000015;28;45526;-84
2023/02/03 03:00:47;;;;;;;;;0.00;0.00;;;;;9.10;100.00;103023.03;5023388;28;45310;-84
2023/02/03 03:03:17;;;;;;;;;1.25;0.00;;;;;9.21;100.00;103041.38;4955987;28;45437;-84
2023/02/03 03:05:48;;;;;;;;;0.00;0.00;;;;;9.23;100.00;103035.38;5039616;28;48154;-83
2023/02/03 03:08:15;;;;;;;;;0.00;0.00;;;;;9.24;100.00;103044.03;5022672;28;45370;-84
2023/02/03 03:10:42;;;;;;;;;1.00;0.00;;;;;9.29;100.00;103048.44;5022469;28;53913;-84
2023/02/03 03:13:11;;;;;;;;;0.00;0.00;;;;;9.32;100.00;103057.97;4956115;28;45444;-84
2023/02/03 03:15:37;;;;;;;;;0.50;0.50;;;;;9.35;100.00;103058.03;5022882;28;45596;-84
2023/02/03 03:18:08;;;;;;;;;1.00;0.00;;;;;9.37;100.00;103058.06;5018082;28;56796;-83
2023/02/03 03:20:34;;;;;;;;;1.00;0.00;;;;;9.35;100.00;103044.16;5044124;27;45380;-84
2023/02/03 03:23:04;;;;;;;;;0.25;0.25;;;;;9.34;100.00;103056.28;5098866;27;45433;-83
2023/02/03 03:25:36;;;;;;;;;0.00;0.00;;;;;9.36;100.00;103057.19;5080394;27;45339;-83
2023/02/03 03:28:06;;;;;;;;;0.00;0.00;;;;;9.40;100.00;103071.97;5098632;27;45716;-83
2023/02/03 03:30:34;;;;;;;;;0.00;0.00;;;;;9.42;100.00;103069.41;5079958;27;45402;-83
2023/02/03 03:33:00;;;;;;;;;0.00;0.00;;;;;9.44;100.00;103072.88;5062053;27;45501;-84
2023/02/03 03:35:31;;;;;;;;;0.00;0.00;;;;;9.47;100.00;103085.91;5065282;27;45395;-84
2023/02/03 03:37:59;;;;;;;;;0.00;0.00;;;;;9.47;100.00;103083.31;5043072;28;46085;-83
2023/02/03 03:40:32;;;;;;;;;0.00;0.00;;;;;9.49;100.00;103086.81;5059998;28;45418;-84
2023/02/03 03:43:01;;;;;;;;;1.00;0.00;;;;;9.49;100.00;103095.50;5059742;28;45461;-84
2023/02/03 03:45:44;;;;;;;;;0.00;0.00;;;;;9.46;100.00;103091.97;5059427;28;45439;-83
2023/02/03 03:48:24;;;;;;;;;0.00;0.00;;;;;9.46;100.00;103092.84;5059633;28;45362;-83
2023/02/03 03:50:54;;;;;;;;;0.00;0.00;;;;;9.43;100.00;103094.53;5077924;27;45389;-84
2023/02/03 03:53:21;;;;;;;;;3.50;0.00;;;;;9.41;100.00;103096.22;5059702;28;45427;-83
2023/02/03 03:55:49;;;;;;;;;0.00;0.00;;;;;9.40;100.00;103091.91;5059461;28;46320;-84
2023/02/03 03:58:19;;;;;;;;;0.50;0.00;;;;;9.43;100.00;103090.19;5059476;28;45424;-84
2023/02/03 04:00:46;;;;;;;;;0.50;0.50;;;;;9.44;100.00;103091.94;5059255;27;45352;-84
2023/02/03 04:03:15;;;;;;;;;0.50;0.50;;;;;9.46;100.00;103092.84;5077154;27;63021;-83
2023/02/03 04:05:41;;;;;;;;;0.00;0.00;;;;;9.46;100.00;103085.03;5059286;28;46233;-84
2023/02/03 04:08:07;;;;;;;;;0.00;0.00;;;;;9.46;100.00;103082.44;5059542;28;46245;-84
2023/02/03 04:10:38;;;;;;;;;0.00;0.00;;;;;9.45;100.00;103072.03;5042462;28;45484;-83
2023/02/03 04:13:04;;;;;;;;;0.00;0.00;;;;;9.48;100.00;103080.72;5042550;28;45824;-83
2023/02/03 04:15:30;;;;;;;;;0.00;0.00;;;;;9.50;100.00;103065.16;5058991;28;45277;-84
2023/02/03 04:17:56;;;;;;;;;0.00;0.00;;;;;9.47;100.00;103067.72;5008646;28;45701;-83
2023/02/03 04:20:22;;;;;;;;;0.75;0.25;;;;;9.43;100.00;103064.19;4973291;28;45473;-83
2023/02/03 04:22:47;;;;;;;;;0.00;0.00;;;;;9.41;100.00;103065.03;4973321;28;45324;-83
2023/02/03 04:25:13;;;;;;;;;0.00;0.00;;;;;9.39;100.00;103067.59;4974017;28;62559;-83
2023/02/03 04:27:38;;;;;;;;;1.50;0.00;;;;;9.36;100.00;103072.78;4974532;28;45308;-83
2023/02/03 04:30:04;;;;;;;;;0.00;0.00;;;;;9.32;100.00;103063.19;4974256;28;45422;-83
2023/02/03 04:32:30;;;;;;;;;0.50;0.00;;;;;9.28;100.00;103049.28;4974523;28;45499;-84
2023/02/03 04:34:56;;;;;;;;;0.00;0.00;;;;;9.27;100.00;103039.75;4974329;28;45645;-83
2023/02/03 04:37:22;;;;;;;;;0.00;0.00;;;;;9.24;100.00;103033.63;4974423;28;45362;-84
2023/02/03 04:39:50;;;;;;;;;0.00;0.00;;;;;9.21;100.00;103041.38;4973270;28;45369;-83
2023/02/03 04:42:15;;;;;;;;;0.00;0.00;;;;;9.19;100.00;103051.75;4974561;28;45269;-83
2023/02/03 04:44:40;;;;;;;;;0.75;0.00;;;;;9.22;100.00;103054.38;4973587;28;46165;-83
2023/02/03 04:47:06;;;;;;;;;0.00;0.00;;;;;9.21;100.00;103042.28;4973024;28;48702;-84
2023/02/03 04:49:31;;;;;;;;;0.00;0.00;;;;;9.19;100.00;103033.56;4973991;28;52637;-83
2023/02/03 04:51:57;;;;;;;;;0.00;0.00;;;;;9.17;100.00;103037.00;4973137;28;45435;-83
2023/02/03 04:54:22;;;;;;;;;0.00;0.00;;;;;9.15;100.00;103034.38;4974240;28;45650;-83
2023/02/03 04:56:47;;;;;;;;;0.00;0.00;;;;;9.12;100.00;103042.13;4974239;28;45554;-83
2023/02/03 04:59:13;;;;;;;;;0.00;0.00;;;;;9.10;100.00;103049.91;4972320;28;51812;-83
2023/02/03 05:01:38;;;;;;;;;0.00;0.00;;;;;9.11;100.00;103059.44;4972436;28;56493;-83
2023/02/03 05:04:03;;;;;;;;;0.00;0.00;;;;;9.12;100.00;103055.13;4973903;28;56557;-83
2023/02/03 05:06:30;;;;;;;;;0.00;0.00;;;;;9.11;100.00;103050.78;4972487;28;58034;-83
2023/02/03 05:08:56;;;;;;;;;0.00;0.00;;;;;9.11;100.00;103048.19;4974197;28;45450;-83
2023/02/03 05:11:21;;;;;;;;;1.50;0.00;;;;;9.18;100.00;103064.75;4972170;28;61648;-83
2023/02/03 05:13:47;;;;;;;;;0.00;0.00;;;;;9.22;100.00;103064.78;4973584;28;47188;-82
2023/02/03 05:16:12;;;;;;;;;0.00;0.00;;;;;9.21;100.00;103068.25;4972756;28;45552;-83
2023/02/03 05:18:38;;;;;;;;;0.00;0.00;;;;;9.23;100.00;103073.44;5062185;27;45480;-83
2023/02/03 05:21:03;;;;;;;;;1.25;0.00;;;;;9.23;100.00;103076.94;5076348;27;45514;-83
2023/02/03 05:23:29;;;;;;;;;0.00;0.00;;;;;9.26;100.00;103076.97;5076373;27;46997;-83
2023/02/03 05:25:54;;;;;;;;;0.00;0.00;;;;;9.21;100.00;103086.44;5041027;28;54120;-83
2023/02/03 05:28:19;;;;;;;;;0.00;0.00;;;;;9.24;100.00;103094.25;5076049;28;45431;-83
2023/02/03 05:30:48;;;;;;;;;1.00;0.00;;;;;9.32;100.00;103096.09;5058168;28;45246;-83
2023/02/03 05:33:13;;;;;;;;;0.50;0.00;;;;;9.36;100.00;103103.97;5058511;28;46341;-83
2023/02/03 05:35:38;;;;;;;;;0.00;0.00;;;;;9.38;100.00;103096.19;5057965;28;45340;-83
2023/02/03 05:38:04;;;;;;;;;0.00;0.00;;;;;9.41;100.00;103101.44;5075956;28;54428;-83
2023/02/03 05:43:13;;;;;;;;;0.00;0.00;;;;;9.38;100.00;103096.19;5075989;28;45361;-83
2023/02/03 05:45:39;;;;;;;;;0.75;0.00;;;;;9.35;100.00;103099.63;5075913;28;48909;-83
2023/02/03 05:48:06;;;;;;;;;0.00;0.00;;;;;9.35;100.00;103096.16;5076008;27;45349;-83
2023/02/03 05:50:32;;;;;;;;;0.00;0.00;;;;;9.33;100.00;103100.47;5058457;28;45505;-83
2023/02/03 05:53:02;;;;;;;;;0.00;0.00;;;;;9.28;100.00;103100.38;5075984;28;45420;-83
2023/02/03 05:55:28;;;;;;;;;2.00;0.50;;;;;9.26;100.00;103102.09;5057479;28;45650;-83
2023/02/03 05:57:53;;;;;;;;;0.00;0.00;;;;;9.24;100.00;103096.00;5061107;28;45427;-82
2023/02/03 06:00:23;;;;;;;;;0.00;0.00;;;;;9.22;100.00;103108.09;5079201;27;54534;-83
2023/02/03 06:02:52;;;;;;;;;0.00;0.00;;;;;9.25;100.00;103110.75;5079583;27;46338;-83
2023/02/03 06:05:18;;;;;;;;;2.00;0.00;;;;;9.26;100.00;103109.88;5061318;28;45700;-83
2023/02/03 06:07:43;;;;;;;;;0.50;0.00;;;;;9.25;100.00;103100.38;5078354;27;45430;-83
2023/02/03 06:10:09;;;;;;;;;0.00;0.00;;;;;9.25;100.00;103095.16;5077222;27;57570;-84
2023/02/03 06:12:36;;;;;;;;;1.00;0.00;;;;;9.23;100.00;103089.03;5044038;28;59981;-84
2023/02/03 06:15:02;;;;;;;;;0.00;0.00;;;;;9.20;100.00;103094.22;5061317;28;46091;-83
2023/02/03 06:17:27;;;;;;;;;0.00;0.00;;;;;9.17;100.00;103084.63;5079304;27;45296;-84
2023/02/03 06:19:52;;;;;;;;;0.00;0.00;;;;;9.14;100.00;103092.41;5060979;28;48911;-83
2023/02/03 06:22:18;;;;;;;;;0.25;0.00;;;;;9.14;100.00;103094.09;5078780;27;50731;-83
2023/02/03 06:24:45;;;;;;;;;1.00;0.00;;;;;9.11;100.00;103103.59;5078577;28;52410;-84
2023/02/03 06:27:10;;;;;;;;;1.25;0.25;;;;;9.07;100.00;103098.34;5061666;28;45447;-84
2023/02/03 06:29:35;;;;;;;;;0.75;0.75;;;;;9.03;100.00;103115.63;5079145;27;45342;-84
2023/02/03 06:32:01;;;;;;;;;0.00;0.00;;;;;8.95;100.00;103113.75;5079102;28;45609;-83
2023/02/03 06:34:26;;;;;;;;;2.00;0.00;;;;;8.86;100.00;103107.56;5079175;27;45355;-80
2023/02/03 06:36:51;;;;;;;;;0.00;0.00;;;;;8.76;100.00;103115.16;5076508;28;60452;-80
2023/02/03 06:39:17;;;;;;;;;0.00;0.00;;;;;8.67;100.00;103115.88;5077967;27;45438;-79
2023/02/03 06:41:42;;;;;;;;;0.00;0.00;;;;;8.63;100.00;103101.09;5077975;28;45534;-80
2023/02/03 06:44:07;;;;;;;;;1.00;1.00;;;;;8.63;100.00;103106.28;5077685;27;60116;-80
2023/02/03 06:46:33;;;;;;;;;1.00;1.00;;;;;8.63;100.00;103104.56;5059958;28;63391;-81
2023/02/03 06:48:58;;;;;;;;;1.00;0.00;;;;;8.67;100.00;103103.78;5077875;27;64250;-81
2023/02/03 06:51:24;;;;;;;;;0.50;0.00;;;;;8.74;100.00;103094.38;5078288;27;46315;-81
2023/02/03 06:53:49;;;;;;;;;2.00;1.00;;;;;8.75;100.00;103103.91;5077644;28;63945;-80
2023/02/03 06:56:14;;;;;;;;;2.00;0.00;;;;;8.79;100.00;103092.72;5076326;27;45387;-81
2023/02/03 06:58:40;;;;;;;;;1.75;1.00;;;;;8.83;100.00;103094.50;5059510;28;63000;-80
2023/02/03 07:01:05;;;;;;;;;0.00;0.00;;;;;8.85;100.00;103091.94;5077917;27;61452;-80
2023/02/03 07:03:30;;;;;;;;;0.25;0.25;;;;;8.94;100.00;103105.09;5077300;27;63844;-83
2023/02/03 07:05:56;;;;;;;;;1.00;0.50;;;;;9.00;100.00;103097.38;5078579;27;45429;-82
2023/02/03 07:08:21;;;;;;;;;0.00;0.00;;;;;9.01;100.00;103100.88;5076675;27;64766;-80
2023/02/03 07:10:46;;;;;;;;;0.00;0.00;;;;;9.01;100.00;103109.53;5076510;27;71327;-80
2023/02/03 07:13:12;;;;;;;;;1.00;1.00;;;;;9.02;100.00;103115.59;5077573;27;45510;-81
2023/02/03 07:15:37;;;;;;;;;0.75;0.00;;;;;9.02;100.00;103123.38;5077910;28;53246;-79
2023/02/03 07:18:03;;;;;;;;;1.50;1.00;;;;;9.01;100.00;103125.13;5068790;28;46744;-80
2023/02/03 07:20:28;;;;;;;;;0.00;0.00;;;;;8.97;100.00;103122.44;5059785;28;46182;-79
2023/02/03 07:22:54;;;;;;;;;0.00;0.00;;;;;8.97;100.00;103117.22;5059691;27;45248;-79
2023/02/03 07:25:20;;;;;;;;;1.00;1.00;;;;;8.94;100.00;103119.81;5070541;28;45439;-79
2023/02/03 07:27:46;;;;;;;;;1.00;1.00;;;;;8.95;100.00;103113.75;5077550;27;45472;-78
2023/02/03 07:30:11;;;;;;;;;1.00;1.00;;;;;8.94;100.00;103112.00;5075603;27;47013;-81
2023/02/03 07:32:37;;;;;;;;;0.00;0.00;;;;;8.92;100.00;103101.59;5078042;28;45287;-78
2023/02/03 07:35:02;;;;;;;;;1.00;1.00;;;;;8.93;100.00;103115.44;5085622;27;62913;-80
2023/02/03 07:37:28;;;;;;;;;0.00;0.00;;;;;8.96;100.00;103113.78;5077471;27;45520;-81
2023/02/03 07:39:53;;;;;;;;;0.00;0.00;;;;;8.96;100.00;103124.16;5077690;27;46012;-81
2023/02/03 07:42:18;;;;;;;;;2.75;0.75;;;;;8.93;100.00;103115.44;5058847;27;65427;-82
2023/02/03 07:44:44;;;;;;;;;0.00;0.00;;;;;8.95;100.00;103106.81;5059913;28;45445;-81
2023/02/03 07:47:09;;;;;;;;;0.25;0.25;;;;;8.96;100.00;103108.56;5077692;27;45312;-83
2023/02/03 07:49:34;;;;;;;;;1.00;0.00;;;;;9.00;100.00;103114.69;5075862;27;67540;-81
2023/02/03 07:52:00;;;;;;;;;2.00;1.00;;;;;9.03;100.00;103109.56;5075679;27;64492;-81
2023/02/03 07:54:25;;;;;;;;;1.25;0.75;;;;;9.05;100.00;103113.06;5077690;27;45294;-80
2023/02/03 07:56:51;;;;;;;;;0.00;0.00;;;;;9.06;100.00;103119.97;5059036;28;45413;-82
2023/02/03 07:59:17;;;;;;;;;0.75;0.75;;;;;9.07;100.00;103121.75;5039248;28;46562;-80
2023/02/03 08:01:42;;;;;;;;;0.00;0.00;;;;;9.17;100.00;103135.75;5065076;28;45687;-81
2023/02/03 08:04:07;;;;;;;;;3.00;1.00;;;;;9.21;100.00;103146.22;5076493;28;46025;-81
2023/02/03 08:06:33;;;;;;;;;2.00;1.50;;;;;9.23;100.00;103149.72;5076578;28;45511;-79
2023/02/03 08:08:58;;;;;;;;;2.00;1.00;;;;;9.29;100.00;103149.78;5058725;28;46117;-80
2023/02/03 08:11:24;;;;;;;;;0.00;0.00;;;;;9.37;100.00;103160.31;5076303;27;55316;-80
2023/02/03 08:13:50;;;;;;;;;1.00;1.00;;;;;9.45;100.00;103163.91;5075745;27;54516;-81
2023/02/03 08:16:15;;;;;;;;;1.75;0.75;;;;;9.54;100.00;103165.75;5072542;27;45554;-82
2023/02/03 08:18:40;;;;;;;;;3.00;0.00;;;;;9.63;100.00;103162.41;4984031;28;46226;-82
2023/02/03 08:21:06;;;;;;;;;0.75;0.00;;;;;9.71;100.00;103167.72;4972395;28;67210;-81
2023/02/03 08:23:31;;;;;;;;;1.00;1.00;;;;;9.74;100.00;103154.75;4974219;28;45316;-81
2023/02/03 08:25:57;;;;;;;;;3.00;0.50;;;;;9.72;100.00;103165.13;4972334;28;55641;-81
2023/02/03 08:28:22;;;;;;;;;2.00;1.25;;;;;9.71;100.00;103167.72;4972699;28;45583;-80
2023/02/03 08:30:47;;;;;;;;;1.00;0.00;;;;;9.66;100.00;103172.84;5040027;28;45494;-81
2023/02/03 08:33:13;;;;;;;;;0.25;0.25;;;;;9.69;100.00;103178.09;5043645;28;45453;-82
2023/02/03 08:35:39;;;;;;;;;2.75;1.25;;;;;9.69;100.00;103186.78;4973553;28;45423;-80
2023/02/03 08:38:05;;;;;;;;;1.00;1.00;;;;;9.68;100.00;103185.03;5005399;28;46176;-81
2023/02/03 08:40:30;;;;;;;;;1.00;1.00;;;;;9.65;100.00;103190.16;5063708;27;61371;-80
2023/02/03 08:42:55;;;;;;;;;1.25;0.00;;;;;9.63;100.00;103189.28;5059703;28;45436;-80
2023/02/03 08:45:21;;;;;;;;;2.00;0.75;;;;;9.63;100.00;103188.41;4982883;28;62547;-80
2023/02/03 08:47:46;;;;;;;;;1.75;0.00;;;;;9.63;100.00;103191.00;4975190;28;54106;-81
2023/02/03 08:50:12;;;;;;;;;1.00;1.00;;;;;9.57;100.00;103199.59;4983983;28;64031;-80
2023/02/03 08:52:38;;;;;;;;;0.75;0.75;;;;;9.58;100.00;103190.06;4983782;28;45573;-80
2023/02/03 08:55:04;;;;;;;;;3.50;1.00;;;;;9.61;100.00;103197.91;4966483;28;45406;-81
2023/02/03 08:57:33;;;;;;;;;1.75;1.00;;;;;9.60;100.00;103190.94;4981480;28;47114;-80
2023/02/03 08:59:58;;;;;;;;;1.50;1.50;;;;;9.60;100.00;103194.44;4980818;28;45514;-82
2023/02/03 09:02:24;;;;;;;;;1.00;1.00;;;;;9.59;100.00;103195.28;4978015;28;64024;-81
2023/02/03 09:04:50;;;;;;;;;6.75;2.00;;;;;9.59;100.00;103194.44;5021140;28;66771;-82
2023/02/03 09:07:16;;;;;;;;;5.00;1.00;;;;;9.58;100.00;103201.34;4982960;27;46523;-82
2023/02/03 09:09:41;;;;;;;;;2.00;0.25;;;;;9.62;100.00;103199.66;4980061;28;45849;-82
2023/02/03 09:12:07;;;;;;;;;1.00;1.00;;;;;9.64;100.00;103198.84;4978663;28;49461;-81
2023/02/03 09:14:33;;;;;;;;;1.50;1.50;;;;;9.65;100.00;103191.91;4983323;28;46880;-82
2023/02/03 09:17:00;;;;;;;;;1.25;1.25;;;;;9.70;100.00;103192.84;4996945;27;45895;-82
2023/02/03 09:19:25;;;;;;;;;2.00;2.00;;;;;9.70;100.00;103195.44;5093278;27;45510;-82
2023/02/03 09:21:51;;;;;;;;;2.00;2.00;;;;;9.64;100.00;103198.84;5086407;27;58416;-82
2023/02/03 09:24:17;;;;;;;;;3.50;2.00;;;;;9.59;100.00;103194.44;5082252;27;57427;-82
2023/02/03 09:26:42;;;;;;;;;2.00;1.25;;;;;9.56;100.00;103195.22;5054238;27;46634;-82
2023/02/03 09:29:08;;;;;;;;;3.00;3.00;;;;;9.61;100.00;103192.72;5086280;27;45821;-82
2023/02/03 09:31:33;;;;;;;;;3.50;2.00;;;;;9.67;100.00;103187.59;5070476;27;61225;-82
2023/02/03 09:33:59;;;;;;;;;0.00;0.00;;;;;9.74;100.00;103194.63;5068810;27;45558;-80
2023/02/03 09:36:25;;;;;;;;;1.25;1.00;;;;;9.87;100.00;103198.28;5049391;27;47977;-83
2023/02/03 09:38:50;;;;;;;;;9.50;2.00;;;;;9.98;100.00;103198.44;5064055;27;45561;-82
2023/02/03 09:41:46;;;;;;;;;3.00;1.00;;;;;10.02;100.00;103205.41;5065366;27;45444;-82
2023/02/03 09:44:14;;;;;;;;;1.50;1.50;;;;;10.07;100.00;103206.34;5075569;27;45540;-82
2023/02/03 09:46:43;;;;;;;;;2.75;1.00;;;;;10.08;100.00;103210.69;5090045;27;46737;-82
2023/02/03 09:49:21;;;;;;;;;2.75;1.00;;;;;10.17;100.00;103209.94;5052275;28;45526;-82
2023/02/03 09:52:10;;;;;;;;;2.75;2.00;;;;;10.31;100.00;103218.81;5069156;27;45507;-81
2023/02/03 09:54:54;;;;;;;;;1.50;1.00;;;;;10.42;100.00;103217.22;5060556;27;45608;-82
2023/02/03 09:57:22;;;;;;;;;1.75;1.00;;;;;10.42;100.00;103221.56;5083016;27;45744;-81
2023/02/03 09:59:49;;;;;;;;;6.00;2.00;;;;;10.51;100.00;103220.75;5060020;28;45821;-82
2023/02/03 10:02:43;;;;;;;;;2.25;2.25;;;;;10.65;100.00;103222.66;5058266;28;45609;-82
2023/02/03 10:05:41;;;;;;;;;3.00;3.00;;;;;10.81;100.00;103223.69;5077050;27;45464;-79
2023/02/03 10:08:16;;;;;;;;;5.00;3.00;;;;;10.94;100.00;103229.00;4993104;28;45464;-82
2023/02/03 10:11:08;;;;;;;;;1.75;1.75;;;;;11.00;100.00;103231.69;5011967;28;45492;-81
2023/02/03 10:13:56;;;;;;;;;3.50;1.00;;;;;10.94;100.00;103234.22;4996734;28;45595;-82
2023/02/03 10:16:34;;;;;;;;;1.00;1.00;;;;;10.87;100.00;103227.25;5010520;28;45523;-81
2023/02/03 10:19:02;;;;;;;;;1.00;1.00;;;;;10.81;100.00;103233.25;5012354;28;45340;-81
2023/02/03 10:21:37;;;;;;;;;2.00;2.00;;;;;10.95;100.00;103235.97;4995634;28;45661;-81
2023/02/03 10:24:09;;;;;;;;;2.00;1.00;;;;;11.11;100.00;103219.63;5012159;28;45570;-82
2023/02/03 10:26:34;;;;;;;;;2.00;2.00;;;;;11.25;100.00;103232.75;5012118;28;45485;-81
2023/02/03 10:29:07;;;;;;;;;1.00;1.00;;;;;11.28;100.00;103226.72;5007459;28;68455;-81
2023/02/03 10:31:34;;;;;;;;;4.00;1.00;;;;;11.32;100.00;103231.09;4985970;28;45485;-82
2023/02/03 10:34:11;;;;;;;;;1.00;1.00;;;;;11.37;100.00;103234.63;5012014;28;45542;-82
2023/02/03 10:36:48;;;;;;;;;2.00;1.00;;;;;11.36;100.00;103236.31;5011864;28;45556;-82
2023/02/03 10:39:38;;;;;;;;;1.75;1.00;;;;;11.34;100.00;103231.97;4995145;28;46384;-82
2023/02/03 10:42:04;;;;;;;;;0.00;0.00;;;;;11.38;100.00;103241.56;5012299;28;45410;-82
2023/02/03 10:44:35;;;;;;;;;0.25;0.25;;;;;11.34;100.00;103239.78;5030806;27;45531;-81
2023/02/03 10:47:00;;;;;;;;;3.00;1.00;;;;;11.28;100.00;103243.22;5076673;27;45480;-81
2023/02/03 10:49:27;;;;;;;;;2.75;0.00;;;;;11.18;100.00;103238.78;5040755;28;69026;-81
2023/02/03 10:51:54;;;;;;;;;1.00;1.00;;;;;11.10;100.00;103241.34;5052155;27;45857;-81
2023/02/03 10:54:32;;;;;;;;;2.50;1.25;;;;;11.12;100.00;103229.19;5080906;27;45487;-82
2023/02/03 10:57:09;;;;;;;;;4.50;2.00;;;;;11.19;100.00;103230.13;5082940;27;45681;-81
2023/02/03 10:59:36;;;;;;;;;1.75;1.00;;;;;11.20;100.00;103226.66;5063544;28;46462;-81
2023/02/03 11:02:20;;;;;;;;;1.00;1.00;;;;;11.23;100.00;103222.31;5080702;27;45457;-82
2023/02/03 11:04:45;;;;;;;;;3.50;1.00;;;;;11.27;100.00;103228.44;5078692;27;45512;-81
2023/02/03 11:07:24;;;;;;;;;3.50;2.00;;;;;11.29;100.00;103226.75;5090081;27;54861;-81
2023/02/03 11:09:49;;;;;;;;;1.00;1.00;;;;;11.30;100.00;103222.38;5090714;27;46181;-81
2023/02/03 11:12:17;;;;;;;;;1.50;1.00;;;;;11.33;100.00;103222.38;5085714;27;66381;-81
2023/02/03 11:14:44;;;;;;;;;3.00;3.00;;;;;11.28;100.00;103221.50;5080714;27;45613;-82
2023/02/03 11:17:25;;;;;;;;;1.00;1.00;;;;;11.24;100.00;103226.69;5085575;27;45467;-81
2023/02/03 11:19:52;;;;;;;;;3.00;2.00;;;;;11.18;100.00;103231.84;5084277;27;46067;-81
2023/02/03 11:22:31;;;;;;;;;0.75;0.75;;;;;11.02;100.00;103228.22;5058190;27;45432;-81
2023/02/03 11:24:57;;;;;;;;;2.25;0.75;;;;;10.98;100.00;103221.25;5067567;27;45752;-81
2023/02/03 11:27:24;;;;;;;;;2.00;1.50;;;;;10.96;100.00;103222.13;5053303;28;45485;-81
2023/02/03 11:29:53;;;;;;;;;3.50;2.50;;;;;10.94;100.00;103218.59;5079300;27;45412;-81
2023/02/03 11:32:23;;;;;;;;;5.50;2.00;;;;;10.88;100.00;103205.50;5068892;27;45348;-82